Bayberry, New York
Current Conditions -  °F | °C
As of 7:54 PM on Friday 21 Nov 2014 (Local Time) from KSYR Reporting Station
Broken Clouds Broken Clouds  
Wind Chill: 17°   Ceiling: 6000
Heat Index: 27°   Visibility: 10mi
Dew Point: 13°   Wind: 12mph
Humidity: 56%   Direction: 240°WSW
Pressure: 30.44"   Gusts: NA
Location:  43.1489°N, 76.2142°W
Report Text: KSYR 220054Z 24010KT 10SM BKN060 M03/M11 A3044 RMK AO2 SLP310 T10281106 $
Loading
Personal Weather Stations






























Interactive Weather Map New forecast layout! Learn more

10-Day Weather Forecast

Advertisements
Track Severe Weather on mobile